createdAt,value
2019-04-26T00:02:33.439Z,12.50
2019-04-26T00:05:03.038Z,12.50
2019-04-26T00:07:32.742Z,12.40
2019-04-26T00:10:03.837Z,12.10
2019-04-26T00:12:37.878Z,11.90
2019-04-26T00:15:10.092Z,11.90
2019-04-26T00:17:54.186Z,11.90
2019-04-26T00:20:24.614Z,11.90
2019-04-26T00:22:54.179Z,12.00
2019-04-26T00:25:24.759Z,12.10
2019-04-26T00:27:54.237Z,12.20
2019-04-26T00:30:23.695Z,12.20
2019-04-26T00:32:53.339Z,12.30
2019-04-26T00:35:22.791Z,12.40
2019-04-26T00:37:52.271Z,12.50
2019-04-26T00:40:22.456Z,12.30
2019-04-26T00:42:52.815Z,12.20
2019-04-26T00:45:23.683Z,12.20
2019-04-26T00:47:54.128Z,12.20
2019-04-26T00:50:23.583Z,12.30
2019-04-26T00:52:53.534Z,12.30
2019-04-26T00:55:23.925Z,12.30
2019-04-26T00:57:53.567Z,12.30
2019-04-26T01:00:24.164Z,12.30
2019-04-26T01:02:55.338Z,12.30
2019-04-26T01:05:25.277Z,12.20
2019-04-26T01:07:56.507Z,12.10
2019-04-26T01:10:25.965Z,12.00
2019-04-26T01:12:55.439Z,11.80
2019-04-26T01:15:24.902Z,11.60
2019-04-26T01:17:54.379Z,11.40
2019-04-26T01:20:26.693Z,11.30
2019-04-26T01:22:59.296Z,11.30
2019-04-26T01:25:44.046Z,11.20
2019-04-26T01:28:23.213Z,11.10
2019-04-26T01:30:53.807Z,10.90
2019-04-26T01:33:24.095Z,10.70
2019-04-26T01:35:53.791Z,10.50
2019-04-26T01:38:23.709Z,10.40
2019-04-26T01:40:55.046Z,10.30
2019-04-26T01:43:38.195Z,10.20
2019-04-26T01:46:09.533Z,10.20
2019-04-26T01:48:47.515Z,10.40
2019-04-26T01:51:21.190Z,10.50
2019-04-26T01:53:52.647Z,10.60
2019-04-26T01:56:25.197Z,10.90
2019-04-26T01:58:55.088Z,11.10
2019-04-26T02:01:32.088Z,11.30
2019-04-26T02:04:01.641Z,11.40
2019-04-26T02:06:34.849Z,11.50
2019-04-26T02:09:02.411Z,11.60
2019-04-26T02:11:33.491Z,11.60
2019-04-26T02:14:03.036Z,11.60
2019-04-26T02:16:33.318Z,11.60
2019-04-26T02:19:02.951Z,11.60
2019-04-26T02:21:34.378Z,11.50
2019-04-26T02:24:09.444Z,11.40
2019-04-26T02:26:42.372Z,11.50
2019-04-26T02:29:14.929Z,11.40
2019-04-26T02:31:47.294Z,11.30
2019-04-26T02:34:16.774Z,11.20
2019-04-26T02:36:57.317Z,11.10
2019-04-26T02:39:20.487Z,11.00
2019-04-26T02:41:52.580Z,11.10
2019-04-26T02:44:36.471Z,11.10
2019-04-26T02:47:34.578Z,11.00
2019-04-26T02:50:09.121Z,11.00
2019-04-26T02:52:44.363Z,11.00
2019-04-26T02:55:25.420Z,11.00
2019-04-26T02:57:55.041Z,10.90
2019-04-26T03:00:24.531Z,10.80
2019-04-26T03:02:57.382Z,10.70
2019-04-26T03:05:30.290Z,10.70
2019-04-26T03:08:03.816Z,10.70
2019-04-26T03:10:37.905Z,10.80
2019-04-26T03:13:10.928Z,10.80
2019-04-26T03:15:45.115Z,10.90
2019-04-26T03:18:32.832Z,11.00
2019-04-26T03:21:05.291Z,11.00
2019-04-26T03:23:57.569Z,11.10
2019-04-26T03:26:20.602Z,11.00
2019-04-26T03:28:55.824Z,11.00
2019-04-26T03:31:41.110Z,11.00
2019-04-26T03:34:21.970Z,10.90
2019-04-26T03:37:26.460Z,10.90
2019-04-26T03:40:08.849Z,10.80
2019-04-26T03:42:57.819Z,10.80
2019-04-26T03:45:30.383Z,10.80
2019-04-26T03:48:15.042Z,10.80
2019-04-26T03:51:05.738Z,10.80
2019-04-26T03:53:47.051Z,10.70
2019-04-26T03:56:21.244Z,10.60
2019-04-26T03:59:02.143Z,10.60
2019-04-26T04:01:47.956Z,10.60
2019-04-26T04:04:36.915Z,10.50
2019-04-26T04:07:09.503Z,10.50
2019-04-26T04:09:42.879Z,10.50
2019-04-26T04:12:48.843Z,10.50
2019-04-26T04:15:32.799Z,10.50
2019-04-26T04:18:09.540Z,10.50
2019-04-26T04:20:48.077Z,10.50
2019-04-26T04:23:26.814Z,10.50
2019-04-26T04:25:57.887Z,10.60
2019-04-26T04:28:49.869Z,10.50
2019-04-26T04:31:41.643Z,10.60
2019-04-26T04:34:14.220Z,10.60
2019-04-26T04:36:48.858Z,10.70
2019-04-26T04:39:26.096Z,10.80
2019-04-26T04:42:35.204Z,10.80
2019-04-26T04:45:43.972Z,10.90
2019-04-26T04:48:21.307Z,11.00
2019-04-26T04:51:14.580Z,11.00
2019-04-26T04:53:56.034Z,11.00
2019-04-26T04:57:00.461Z,11.00
2019-04-26T04:59:50.295Z,11.10
2019-04-26T05:02:43.827Z,11.10
2019-04-26T05:05:32.947Z,11.20
2019-04-26T05:08:25.202Z,11.30
2019-04-26T05:11:06.346Z,11.40
2019-04-26T05:13:47.894Z,11.50
2019-04-26T05:16:41.723Z,11.50
2019-04-26T05:19:32.403Z,11.40
2019-04-26T05:22:08.028Z,11.50
2019-04-26T05:25:05.505Z,11.60
2019-04-26T05:27:59.388Z,11.60
2019-04-26T05:30:36.250Z,11.70
2019-04-26T05:33:11.591Z,11.80
2019-04-26T05:35:57.711Z,11.90
2019-04-26T05:38:51.720Z,11.80
2019-04-26T05:41:31.482Z,11.80
2019-04-26T05:44:22.068Z,11.90
2019-04-26T05:47:07.963Z,11.80
2019-04-26T05:49:57.997Z,11.80
2019-04-26T05:53:04.423Z,11.90
2019-04-26T05:56:05.841Z,11.90
2019-04-26T05:58:54.723Z,11.90
2019-04-26T06:01:43.570Z,12.00
2019-04-26T06:04:35.748Z,12.10
2019-04-26T06:07:30.349Z,12.20
2019-04-26T06:10:34.439Z,12.30
2019-04-26T06:13:17.406Z,12.40
2019-04-26T06:16:06.018Z,12.40
2019-04-26T06:18:43.055Z,12.40
2019-04-26T06:21:24.403Z,12.40
2019-04-26T06:24:00.691Z,12.40
2019-04-26T06:27:09.314Z,12.40
2019-04-26T06:29:34.928Z,12.20
2019-04-26T06:32:28.408Z,12.50
2019-04-26T06:35:06.753Z,12.60
2019-04-26T06:37:40.955Z,12.50
2019-04-26T06:40:16.270Z,12.30
2019-04-26T06:43:05.779Z,12.50
2019-04-26T06:45:58.594Z,12.50
2019-04-26T06:48:35.553Z,12.60
2019-04-26T06:51:23.522Z,12.60
2019-04-26T06:54:10.481Z,12.50
2019-04-26T06:57:14.911Z,12.60
2019-04-26T06:59:52.517Z,12.50
2019-04-26T07:02:44.432Z,12.30
2019-04-26T07:05:16.976Z,12.50
2019-04-26T07:08:03.076Z,12.60
2019-04-26T07:10:41.967Z,12.50
2019-04-26T07:13:38.803Z,12.50
2019-04-26T07:16:27.911Z,12.80
2019-04-26T07:19:22.211Z,12.80
2019-04-26T07:22:21.235Z,12.80
2019-04-26T07:25:30.108Z,12.80
2019-04-26T07:28:17.512Z,12.70
2019-04-26T07:30:52.478Z,12.80
2019-04-26T07:33:56.271Z,12.80
2019-04-26T07:36:28.817Z,13.00
2019-04-26T07:39:23.484Z,13.30
2019-04-26T07:42:26.335Z,13.40
2019-04-26T07:45:23.111Z,13.30
2019-04-26T07:48:19.689Z,13.50
2019-04-26T07:51:11.530Z,13.50
2019-04-26T07:54:00.715Z,13.30
2019-04-26T07:57:03.101Z,13.30
2019-04-26T07:59:55.782Z,13.10
2019-04-26T08:02:52.077Z,13.10
2019-04-26T08:05:46.478Z,13.20
2019-04-26T08:08:21.948Z,13.40
2019-04-26T08:10:57.121Z,13.30
2019-04-26T08:13:29.820Z,13.30
2019-04-26T08:16:10.523Z,13.40
2019-04-26T08:18:44.780Z,13.40
2019-04-26T08:21:18.924Z,13.40
2019-04-26T08:23:56.516Z,13.50
2019-04-26T08:26:27.160Z,13.40
2019-04-26T08:29:01.626Z,13.30
2019-04-26T08:31:33.103Z,13.30
2019-04-26T08:34:10.145Z,13.20
2019-04-26T08:36:43.466Z,13.20
2019-04-26T08:39:23.393Z,13.30
2019-04-26T08:41:54.206Z,13.30
2019-04-26T08:44:28.406Z,13.30
2019-04-26T08:47:24.268Z,13.10
2019-04-26T08:49:50.470Z,13.20
2019-04-26T08:52:23.915Z,13.10
2019-04-26T08:54:56.281Z,12.80
2019-04-26T08:57:29.148Z,12.50
2019-04-26T09:00:01.717Z,12.50
2019-04-26T09:02:53.237Z,12.50
2019-04-26T09:05:29.979Z,12.40
2019-04-26T09:08:03.866Z,12.40
2019-04-26T09:10:39.326Z,12.40
2019-04-26T09:13:10.706Z,12.40
2019-04-26T09:15:59.881Z,12.50
2019-04-26T09:18:42.036Z,12.50
2019-04-26T09:21:00.428Z,12.70
2019-04-26T09:23:40.203Z,12.90
2019-04-26T09:26:08.684Z,12.90
2019-04-26T09:28:42.657Z,13.30
2019-04-26T09:31:21.048Z,13.20
2019-04-26T09:33:55.168Z,13.10
2019-04-26T09:36:24.626Z,13.20
2019-04-26T09:38:54.111Z,13.10
2019-04-26T09:41:26.585Z,13.20
2019-04-26T09:44:05.332Z,13.00
2019-04-26T09:46:52.801Z,12.90
2019-04-26T09:49:26.626Z,12.70
2019-04-26T09:51:56.435Z,12.80
2019-04-26T09:54:25.918Z,12.70
2019-04-26T09:56:55.379Z,12.50
2019-04-26T09:59:24.858Z,12.50
2019-04-26T10:01:55.393Z,12.60
2019-04-26T10:04:25.559Z,12.80
2019-04-26T10:06:55.147Z,12.60
2019-04-26T10:09:24.968Z,12.60
2019-04-26T10:11:56.140Z,12.70
2019-04-26T10:14:46.546Z,12.80
2019-04-26T10:17:17.707Z,12.80
2019-04-26T10:19:48.821Z,12.60
2019-04-26T10:22:18.282Z,12.30
2019-04-26T10:24:47.762Z,12.40
2019-04-26T10:27:17.207Z,12.10
2019-04-26T10:29:46.674Z,11.90
2019-04-26T10:32:16.190Z,11.90
2019-04-26T10:34:47.308Z,11.80
2019-04-26T10:37:16.750Z,11.80
2019-04-26T10:39:46.229Z,11.60
2019-04-26T10:42:15.691Z,11.40
2019-04-26T10:44:45.171Z,11.40
2019-04-26T10:47:15.801Z,11.40
2019-04-26T10:49:47.219Z,11.40
2019-04-26T10:52:19.249Z,11.40
2019-04-26T10:54:59.514Z,11.40
2019-04-26T10:57:45.842Z,11.30
2019-04-26T11:00:20.688Z,11.20
2019-04-26T11:02:50.215Z,11.30
2019-04-26T11:05:20.836Z,11.30
2019-04-26T11:07:50.295Z,11.30
2019-04-26T11:10:19.848Z,11.20
2019-04-26T11:12:49.372Z,11.20
2019-04-26T11:15:20.367Z,11.20
2019-04-26T11:17:50.992Z,11.20
2019-04-26T11:20:20.642Z,11.20
2019-04-26T11:22:50.179Z,11.20
2019-04-26T11:25:19.735Z,11.40
2019-04-26T11:27:49.230Z,11.40
2019-04-26T11:30:21.161Z,11.60
2019-04-26T11:32:50.394Z,11.50
2019-04-26T11:35:19.993Z,11.50
2019-04-26T11:37:50.698Z,11.40
2019-04-26T11:40:20.742Z,11.30
2019-04-26T11:42:50.196Z,11.20
2019-04-26T11:45:19.680Z,11.20
2019-04-26T11:47:56.102Z,11.20
2019-04-26T11:50:20.397Z,11.20
2019-04-26T11:52:49.847Z,11.40
2019-04-26T11:55:19.328Z,11.60
2019-04-26T11:57:49.168Z,11.80
2019-04-26T12:00:23.470Z,12.00
2019-04-26T12:02:52.920Z,12.20
2019-04-26T12:05:24.040Z,12.10
2019-04-26T12:07:55.136Z,11.90
2019-04-26T12:10:27.160Z,11.80
2019-04-26T12:15:52.015Z,12.00
2019-04-26T12:18:21.525Z,12.00
2019-04-26T12:20:50.955Z,12.00
2019-04-26T12:23:21.740Z,12.10
2019-04-26T12:25:51.408Z,12.10
2019-04-26T12:28:20.867Z,12.10
2019-04-26T12:30:54.192Z,12.10
2019-04-26T12:33:21.443Z,12.20
2019-04-26T12:35:56.750Z,12.20
2019-04-26T12:38:24.161Z,12.30
2019-04-26T12:40:53.104Z,12.40
2019-04-26T12:43:24.605Z,12.60
2019-04-26T12:45:57.994Z,12.70
2019-04-26T12:48:28.794Z,12.60
2019-04-26T12:50:59.253Z,12.40
2019-04-26T12:53:31.324Z,12.30
2019-04-26T12:55:59.835Z,12.30
2019-04-26T12:58:29.298Z,12.30
2019-04-26T13:01:00.157Z,12.20
2019-04-26T13:03:30.687Z,12.10
2019-04-26T13:06:00.225Z,12.10
2019-04-26T13:08:29.799Z,11.90
2019-04-26T13:11:08.052Z,11.80
2019-04-26T13:13:39.570Z,11.80
2019-04-26T13:16:13.730Z,11.90
2019-04-26T13:18:45.195Z,11.90
2019-04-26T13:21:14.367Z,11.80
2019-04-26T13:23:43.827Z,11.80
2019-04-26T13:26:13.311Z,11.80
2019-04-26T13:28:42.845Z,11.80
2019-04-26T13:31:12.328Z,11.70
2019-04-26T13:33:41.794Z,11.70
2019-04-26T13:36:11.268Z,11.60
2019-04-26T13:38:43.605Z,11.50
2019-04-26T13:41:11.833Z,11.50
2019-04-26T13:43:44.787Z,11.50
2019-04-26T13:46:22.226Z,11.40
2019-04-26T13:52:01.914Z,11.40
2019-04-26T13:54:37.427Z,11.40
2019-04-26T13:57:13.223Z,11.40
2019-04-26T13:59:42.865Z,11.50
2019-04-26T14:02:16.314Z,11.50
2019-04-26T14:04:46.183Z,11.60
2019-04-26T14:07:20.058Z,11.60
2019-04-26T14:09:50.678Z,11.70
2019-04-26T14:12:20.310Z,11.80
2019-04-26T14:14:49.887Z,11.80
2019-04-26T14:17:19.507Z,11.80
2019-04-26T14:19:49.805Z,11.80
2019-04-26T14:22:22.192Z,11.80
2019-04-26T14:24:58.289Z,11.80
2019-04-26T14:27:32.435Z,11.70
2019-04-26T14:30:02.544Z,11.60
2019-04-26T14:32:34.296Z,11.50
2019-04-26T14:35:05.008Z,11.40
2019-04-26T14:37:34.851Z,11.40
2019-04-26T14:40:16.804Z,11.40
2019-04-26T14:42:46.030Z,11.30
2019-04-26T14:45:22.673Z,11.30
2019-04-26T14:47:47.614Z,11.30
2019-04-26T14:50:14.592Z,11.30
2019-04-26T14:52:44.264Z,11.30
2019-04-26T14:55:16.585Z,11.30
2019-04-26T14:57:46.882Z,11.40
2019-04-26T15:00:16.799Z,11.30
2019-04-26T15:02:55.785Z,11.40
2019-04-26T15:05:30.606Z,11.30
2019-04-26T15:08:09.540Z,11.30
2019-04-26T15:10:45.786Z,11.30
2019-04-26T15:13:17.966Z,11.30
2019-04-26T15:15:43.460Z,11.30
2019-04-26T15:18:13.435Z,11.40
2019-04-26T15:20:42.904Z,11.50
2019-04-26T15:23:13.242Z,11.70
2019-04-26T15:25:48.332Z,11.80
2019-04-26T15:28:14.621Z,12.10
2019-04-26T15:30:46.756Z,12.20
2019-04-26T15:33:15.448Z,12.30
2019-04-26T15:35:45.931Z,12.30
2019-04-26T15:38:15.409Z,12.50
2019-04-26T15:40:49.424Z,12.50
2019-04-26T15:43:29.879Z,12.50
2019-04-26T15:46:12.344Z,12.40
2019-04-26T15:48:58.983Z,12.40
2019-04-26T15:51:32.802Z,12.50
2019-04-26T15:54:02.291Z,12.50
2019-04-26T15:56:32.439Z,12.60
2019-04-26T15:59:03.119Z,12.50
2019-04-26T16:01:32.659Z,12.40
2019-04-26T16:04:06.117Z,12.30
2019-04-26T16:06:33.202Z,12.30
2019-04-26T16:09:02.690Z,12.20
2019-04-26T16:11:42.851Z,12.20
2019-04-26T16:14:12.364Z,12.00
2019-04-26T16:16:42.397Z,11.80
2019-04-26T16:19:13.061Z,11.70
2019-04-26T16:21:42.645Z,11.70
2019-04-26T16:24:12.916Z,11.60
2019-04-26T16:26:50.370Z,11.70
2019-04-26T16:29:18.250Z,11.60
2019-04-26T16:32:06.157Z,11.60
2019-04-26T16:34:41.770Z,11.50
2019-04-26T16:37:09.930Z,11.50
2019-04-26T16:39:40.204Z,11.50
2019-04-26T16:42:09.790Z,11.50
2019-04-26T16:44:39.347Z,11.60
2019-04-26T16:47:08.823Z,11.60
2019-04-26T16:49:42.074Z,11.60
2019-04-26T16:52:09.390Z,11.60
2019-04-26T16:54:38.878Z,11.60
2019-04-26T16:57:11.588Z,11.60
2019-04-26T16:59:46.829Z,11.60
2019-04-26T17:02:13.371Z,11.60
2019-04-26T17:04:43.600Z,11.60
2019-04-26T17:07:13.897Z,11.60
2019-04-26T17:09:59.827Z,11.60
2019-04-26T17:12:16.015Z,11.60
2019-04-26T17:14:48.871Z,11.60
2019-04-26T17:17:16.847Z,11.60
2019-04-26T17:19:46.338Z,11.50
2019-04-26T17:22:23.709Z,11.50
2019-04-26T17:24:54.956Z,11.40
2019-04-26T17:27:25.494Z,11.40
2019-04-26T17:29:54.982Z,11.40
2019-04-26T17:32:24.447Z,11.40
2019-04-26T17:34:54.466Z,11.40
2019-04-26T17:37:26.579Z,11.30
2019-04-26T17:39:55.604Z,11.30
2019-04-26T17:42:29.248Z,11.30
2019-04-26T17:44:57.669Z,11.30
2019-04-26T17:47:28.330Z,11.30
2019-04-26T17:50:04.538Z,11.30
2019-04-26T17:52:35.767Z,11.30
2019-04-26T17:55:00.610Z,11.40
2019-04-26T17:57:34.743Z,11.40
2019-04-26T18:00:08.078Z,11.40
2019-04-26T18:02:41.964Z,11.30
2019-04-26T18:05:07.214Z,11.30
2019-04-26T18:07:43.268Z,11.30
2019-04-26T18:10:08.301Z,11.20
2019-04-26T18:12:40.685Z,11.20
2019-04-26T18:15:11.616Z,11.20
2019-04-26T18:17:41.826Z,11.20
2019-04-26T18:20:28.156Z,11.10
2019-04-26T18:23:05.242Z,11.10
2019-04-26T18:25:33.291Z,11.10
2019-04-26T18:28:04.501Z,11.00
2019-04-26T18:30:33.870Z,10.90
2019-04-26T18:33:03.329Z,10.90
2019-04-26T18:35:33.760Z,10.90
2019-04-26T18:38:03.718Z,10.90
2019-04-26T18:40:56.130Z,10.90
2019-04-26T18:43:04.519Z,10.90
2019-04-26T18:45:34.987Z,10.80
2019-04-26T18:48:04.842Z,10.80
2019-04-26T18:50:36.521Z,10.70
2019-04-26T18:53:07.135Z,10.70
2019-04-26T18:55:36.619Z,10.70
2019-04-26T18:58:07.146Z,10.70
2019-04-26T19:00:38.287Z,10.70
2019-04-26T19:03:07.827Z,10.60
2019-04-26T19:05:37.370Z,10.60
2019-04-26T19:08:07.546Z,10.60
2019-04-26T19:10:38.074Z,10.60
2019-04-26T19:13:09.176Z,10.60
2019-04-26T19:15:42.879Z,10.50
2019-04-26T19:18:14.055Z,10.50
2019-04-26T19:20:54.418Z,10.50
2019-04-26T19:23:29.030Z,10.50
2019-04-26T19:25:54.989Z,10.50
2019-04-26T19:28:24.454Z,10.60
2019-04-26T19:30:54.028Z,10.50
2019-04-26T19:33:23.552Z,10.50
2019-04-26T19:35:53.111Z,10.50
2019-04-26T19:38:22.643Z,10.50
2019-04-26T19:40:52.197Z,10.40
2019-04-26T19:43:30.266Z,10.40
2019-04-26T19:45:57.486Z,10.40
2019-04-26T19:48:34.591Z,10.40
2019-04-26T19:51:11.767Z,10.40
2019-04-26T19:53:58.011Z,10.40
2019-04-26T19:56:29.194Z,10.40
2019-04-26T19:58:58.783Z,10.40
2019-04-26T20:01:28.480Z,10.40
2019-04-26T20:03:57.949Z,10.40
2019-04-26T20:06:27.436Z,10.40
2019-04-26T20:08:56.895Z,10.40
2019-04-26T20:11:26.433Z,10.40
2019-04-26T20:13:55.935Z,10.40
2019-04-26T20:16:26.002Z,10.40
2019-04-26T20:18:55.558Z,10.40
2019-04-26T20:21:26.011Z,10.40
2019-04-26T20:23:56.543Z,10.40
2019-04-26T20:26:26.024Z,10.40
2019-04-26T20:28:55.559Z,10.40
2019-04-26T20:31:29.175Z,10.30
2019-04-26T20:33:58.702Z,10.30
2019-04-26T20:36:28.459Z,10.30
2019-04-26T20:38:57.992Z,10.30
2019-04-26T20:41:27.580Z,10.20
2019-04-26T20:44:07.373Z,10.20
2019-04-26T20:46:29.754Z,10.10
2019-04-26T20:49:01.371Z,10.10
2019-04-26T20:51:32.216Z,10.00
2019-04-26T20:54:02.385Z,10.00
2019-04-26T20:56:32.690Z,10.00
2019-04-26T20:59:02.150Z,10.00
2019-04-26T21:01:32.111Z,9.90
2019-04-26T21:04:02.807Z,10.00
2019-04-26T21:06:33.810Z,10.00
2019-04-26T21:09:06.487Z,10.00
2019-04-26T21:11:38.412Z,9.90
2019-04-26T21:14:09.072Z,9.90
2019-04-26T21:16:38.523Z,9.90
2019-04-26T21:19:07.985Z,9.90
2019-04-26T21:21:37.538Z,10.00
2019-04-26T21:24:07.066Z,9.90
2019-04-26T21:26:54.601Z,9.90
2019-04-26T21:29:34.731Z,9.90
2019-04-26T21:32:16.292Z,9.90
2019-04-26T21:34:50.665Z,9.90
2019-04-26T21:37:30.176Z,9.90
2019-04-26T21:40:04.228Z,9.90
2019-04-26T21:42:35.391Z,9.90
2019-04-26T21:45:07.292Z,10.00
2019-04-26T21:47:37.254Z,9.90
2019-04-26T21:50:07.352Z,9.90
2019-04-26T21:52:36.899Z,9.90
2019-04-26T21:55:06.906Z,9.90
2019-04-26T21:57:36.372Z,9.90
2019-04-26T22:00:14.427Z,9.90
2019-04-26T22:02:45.599Z,9.90
2019-04-26T22:05:15.188Z,9.90
2019-04-26T22:07:47.721Z,9.90
2019-04-26T22:10:20.629Z,9.80
2019-04-26T22:12:50.109Z,9.80
2019-04-26T22:15:35.873Z,9.80
2019-04-26T22:18:03.287Z,9.80
2019-04-26T22:20:35.447Z,9.80
2019-04-26T22:23:16.326Z,9.80
2019-04-26T22:25:45.978Z,9.70
2019-04-26T22:28:15.454Z,9.70
2019-04-26T22:30:44.907Z,9.70
2019-04-26T22:33:14.396Z,9.70
2019-04-26T22:35:43.854Z,9.70
2019-04-26T22:38:17.407Z,9.70
2019-04-26T22:40:48.612Z,9.60
2019-04-26T22:43:20.130Z,9.60
2019-04-26T22:45:50.831Z,9.50
2019-04-26T22:48:30.501Z,9.60
2019-04-26T22:51:00.022Z,9.60
2019-04-26T22:53:29.504Z,9.50
2019-04-26T22:56:01.457Z,9.50
2019-04-26T22:58:30.135Z,9.50
2019-04-26T23:01:03.465Z,9.50
2019-04-26T23:03:31.837Z,9.60
2019-04-26T23:06:01.297Z,9.60
2019-04-26T23:08:34.650Z,9.60
2019-04-26T23:11:02.389Z,9.60
2019-04-26T23:13:51.187Z,9.60
2019-04-26T23:16:28.111Z,9.50
2019-04-26T23:18:59.228Z,9.60
2019-04-26T23:21:33.841Z,9.60
2019-04-26T23:24:04.258Z,9.60
2019-04-26T23:26:37.492Z,9.50
2019-04-26T23:29:08.146Z,9.50
2019-04-26T23:31:37.462Z,9.50
2019-04-26T23:34:07.146Z,9.60
2019-04-26T23:36:36.607Z,9.50
2019-04-26T23:39:07.736Z,9.50
2019-04-26T23:41:41.574Z,9.40
2019-04-26T23:44:09.675Z,9.40
2019-04-26T23:46:39.200Z,9.40
2019-04-26T23:49:08.677Z,9.30
2019-04-26T23:51:42.046Z,9.40
2019-04-26T23:54:09.227Z,9.20
2019-04-26T23:56:38.695Z,9.10
2019-04-26T23:59:08.171Z,9.00
